Time;durP1;ratioP1;P1;durP2;ratioP2;P2;SDS_P1;SDS_P2;PMS_P1;PMS_P2;Temp;Humidity;BMP_temperature;BMP_pressure;BME280_temperature;BME280_humidity;BME280_pressure;Samples;Min_cycle;Max_cycle;Signal;HPM_P1;HPM_P2
2023/03/12 00:02:28;;;;;;;1.10;1.00;;;18.00;30.10;;;;;;5795241;24;20160;-87
2023/03/12 00:05:24;;;;;;;0.90;0.90;;;18.00;30.20;;;;;;5795899;24;20169;-87
2023/03/12 00:08:46;;;;;;;1.20;1.10;;;17.90;30.10;;;;;;5844377;24;20217;-87
2023/03/12 00:11:39;;;;;;;1.30;1.20;;;18.00;30.20;;;;;;5877814;24;20506;-87
2023/03/12 00:14:20;;;;;;;1.20;1.10;;;17.90;30.10;;;;;;5864629;24;20158;-87
2023/03/12 00:17:08;;;;;;;1.13;1.02;;;17.90;30.10;;;;;;5884023;24;20159;-87
2023/03/12 00:20:00;;;;;;;1.27;1.17;;;17.90;30.20;;;;;;5852826;24;20206;-87
2023/03/12 00:22:40;;;;;;;1.20;1.10;;;18.00;30.30;;;;;;5828843;24;20170;-87
2023/03/12 00:25:30;;;;;;;1.15;1.05;;;17.90;30.20;;;;;;5828440;24;20166;-87
2023/03/12 00:28:17;;;;;;;2.47;1.30;;;17.90;30.20;;;;;;5859234;24;20151;-87
2023/03/12 00:31:01;;;;;;;1.40;1.30;;;17.90;30.20;;;;;;5857768;24;20188;-87
2023/03/12 00:34:10;;;;;;;1.27;1.17;;;17.90;30.20;;;;;;5881971;24;20172;-87
2023/03/12 00:37:08;;;;;;;1.30;1.20;;;17.90;30.20;;;;;;5857654;24;20158;-87
2023/03/12 00:39:46;;;;;;;1.40;1.30;;;17.90;30.30;;;;;;5735783;24;20197;-87
2023/03/12 00:45:39;;;;;;;1.40;1.30;;;17.90;30.30;;;;;;5797266;24;20163;-87
2023/03/12 00:48:37;;;;;;;1.42;1.10;;;17.90;30.90;;;;;;5854505;24;20163;-86
2023/03/12 00:51:28;;;;;;;1.33;1.20;;;17.90;30.40;;;;;;5857867;24;20162;-87
2023/03/12 00:53:58;;;;;;;1.40;1.30;;;17.90;30.70;;;;;;5885394;24;20170;-87
2023/03/12 00:56:45;;;;;;;1.50;1.13;;;17.90;30.30;;;;;;5832157;24;20160;-87
2023/03/12 00:59:24;;;;;;;1.40;1.30;;;17.90;30.40;;;;;;5858416;24;20190;-87
2023/03/12 01:02:01;;;;;;;1.27;1.17;;;17.90;30.40;;;;;;5857952;24;20161;-86
2023/03/12 01:04:58;;;;;;;1.77;1.20;;;17.90;30.40;;;;;;5826398;24;20202;-87
2023/03/12 01:08:01;;;;;;;1.30;1.20;;;17.80;30.40;;;;;;5821084;24;20159;-87
2023/03/12 01:10:43;;;;;;;1.13;1.02;;;17.90;30.50;;;;;;5857997;24;20168;-87
2023/03/12 01:13:20;;;;;;;1.48;1.35;;;17.90;30.50;;;;;;5885527;24;20162;-87
2023/03/12 01:16:21;;;;;;;1.40;1.30;;;17.90;30.40;;;;;;5889844;24;20158;-87
2023/03/12 01:19:13;;;;;;;1.80;1.38;;;17.80;30.50;;;;;;5916233;24;20215;-87
2023/03/12 01:21:56;;;;;;;1.38;1.23;;;17.80;30.50;;;;;;5939822;24;20645;-87
2023/03/12 01:24:25;;;;;;;1.15;0.98;;;17.90;30.50;;;;;;5939777;24;20163;-87
2023/03/12 01:26:58;;;;;;;1.25;0.95;;;17.90;30.50;;;;;;5990498;24;20818;-86
2023/03/12 01:29:58;;;;;;;1.40;1.30;;;17.80;30.50;;;;;;5966944;24;20195;-87
2023/03/12 01:32:47;;;;;;;1.83;1.38;;;17.80;30.50;;;;;;5989451;23;20155;-87
2023/03/12 01:35:22;;;;;;;1.58;1.48;;;17.80;30.60;;;;;;6015415;23;20165;-87
2023/03/12 01:37:55;;;;;;;1.38;1.27;;;17.80;31.20;;;;;;6075771;23;20168;-87
2023/03/12 01:40:29;;;;;;;1.00;0.95;;;17.80;30.50;;;;;;5995511;23;20194;-87
2023/03/12 01:43:00;;;;;;;1.23;1.13;;;17.80;30.50;;;;;;6022994;23;20158;-86
2023/03/12 01:49:07;;;;;;;1.40;1.30;;;17.80;30.60;;;;;;5958634;24;20157;-87
2023/03/12 01:51:49;;;;;;;1.48;1.33;;;17.80;30.60;;;;;;5891572;24;20230;-86
2023/03/12 01:54:49;;;;;;;1.42;1.33;;;17.80;30.60;;;;;;5857973;24;20169;-86
2023/03/12 01:57:37;;;;;;;1.42;1.30;;;17.80;30.60;;;;;;5888285;24;20173;-86
2023/03/12 02:00:26;;;;;;;1.45;1.17;;;17.80;30.70;;;;;;5890730;24;20217;-87
2023/03/12 02:03:20;;;;;;;1.45;1.35;;;17.80;30.70;;;;;;5889359;24;20153;-86
2023/03/12 02:06:05;;;;;;;1.60;1.40;;;17.80;30.70;;;;;;5885201;24;20205;-86
2023/03/12 02:08:52;;;;;;;1.30;1.20;;;17.80;30.70;;;;;;5921772;24;20173;-86
2023/03/12 02:11:28;;;;;;;1.38;1.27;;;17.70;30.70;;;;;;5897178;24;20252;-86
2023/03/12 02:17:19;;;;;;;1.40;1.30;;;17.80;30.80;;;;;;5862784;24;20274;-86
2023/03/12 02:20:11;;;;;;;1.33;1.20;;;17.80;30.70;;;;;;5917500;24;20216;-86
2023/03/12 02:23:11;;;;;;;1.50;1.30;;;17.80;30.70;;;;;;5981790;24;20162;-86
2023/03/12 02:25:53;;;;;;;1.40;1.30;;;17.70;30.70;;;;;;5994377;23;20163;-86
2023/03/12 02:28:42;;;;;;;;;;;;;;;;;;;;;
2023/03/12 02:31:36;;;;;;;1.30;1.20;;;17.60;30.70;;;;;;6044767;23;20188;-86
2023/03/12 02:34:13;;;;;;;1.50;1.40;;;17.80;30.80;;;;;;6079121;23;20152;-86
2023/03/12 02:36:41;;;;;;;1.63;1.45;;;17.70;30.70;;;;;;6086267;23;20252;-86
2023/03/12 02:39:47;;;;;;;1.60;1.25;;;17.80;30.80;;;;;;6085438;23;20172;-86
2023/03/12 02:42:28;;;;;;;1.25;1.15;;;17.70;30.80;;;;;;6026791;23;20217;-86
2023/03/12 02:45:11;;;;;;;1.75;1.50;;;17.70;30.80;;;;;;6051058;23;20150;-87
2023/03/12 02:48:04;;;;;;;1.55;1.40;;;17.70;30.80;;;;;;5994452;24;20222;-86
2023/03/12 02:50:46;;;;;;;1.58;1.30;;;17.70;30.80;;;;;;5961237;24;20156;-86
2023/03/12 02:53:16;;;;;;;2.83;1.50;;;17.60;30.80;;;;;;5966398;24;20203;-87
2023/03/12 02:55:50;;;;;;;1.23;1.13;;;17.70;30.80;;;;;;5959704;24;20159;-86
2023/03/12 02:58:36;;;;;;;1.67;1.08;;;17.70;30.90;;;;;;5966091;24;20223;-86
2023/03/12 03:01:09;;;;;;;1.88;1.45;;;17.70;30.90;;;;;;5938583;24;20161;-86
2023/03/12 03:03:50;;;;;;;1.58;1.42;;;17.70;30.90;;;;;;5938239;24;20160;-85
2023/03/12 03:06:32;;;;;;;;;;;;;;;;;;;;;
2023/03/12 03:09:21;;;;;;;1.60;1.50;;;17.70;30.90;;;;;;5941139;24;20195;-87
2023/03/12 03:12:04;;;;;;;1.17;1.08;;;17.70;30.90;;;;;;5942364;24;20163;-87
2023/03/12 03:14:47;;;;;;;1.20;1.10;;;17.80;30.90;;;;;;5966295;24;20159;-86
2023/03/12 03:17:31;;;;;;;1.55;1.45;;;17.70;30.90;;;;;;5940156;24;20160;-86
2023/03/12 03:19:59;;;;;;;1.30;1.20;;;17.70;30.90;;;;;;5968589;24;20179;-86
2023/03/12 03:22:38;;;;;;;1.17;1.08;;;17.60;30.90;;;;;;5991848;23;20156;-85
2023/03/12 03:25:08;;;;;;;1.50;1.40;;;17.70;31.00;;;;;;6017262;23;20618;-86
2023/03/12 03:27:44;;;;;;;1.77;1.48;;;17.70;31.00;;;;;;5970490;24;20167;-86
2023/03/12 03:30:31;;;;;;;;;;;;;;;;;;;;;
2023/03/12 03:33:26;;;;;;;1.38;1.27;;;17.70;31.00;;;;;;5889260;24;20859;-86
2023/03/12 03:36:00;;;;;;;1.38;1.27;;;17.70;31.00;;;;;;5888866;24;20232;-87
2023/03/12 03:39:27;;;;;;;1.38;1.27;;;17.70;31.00;;;;;;5933652;24;20165;-87
2023/03/12 03:41:33;;;;;;;1.27;1.17;;;17.70;31.70;;;;;;5931954;24;20282;-86
2023/03/12 03:44:12;;;;;;;1.45;1.05;;;17.60;31.00;;;;;;5941752;24;20163;-86
2023/03/12 03:46:46;;;;;;;1.38;1.27;;;17.70;31.10;;;;;;5909761;24;20352;-86
2023/03/12 03:49:35;;;;;;;1.60;1.50;;;17.70;31.00;;;;;;5921315;24;20184;-87
2023/03/12 03:52:06;;;;;;;1.40;1.00;;;17.70;31.00;;;;;;5909626;24;20221;-87
2023/03/12 03:54:44;;;;;;;1.30;1.20;;;17.70;31.10;;;;;;5910042;24;20306;-87
2023/03/12 03:57:20;;;;;;;1.30;1.20;;;17.70;31.10;;;;;;5858691;24;20161;-87
2023/03/12 03:59:50;;;;;;;1.20;1.10;;;17.60;31.00;;;;;;5826689;24;20190;-86
2023/03/12 04:02:19;;;;;;;1.67;1.40;;;17.70;31.10;;;;;;5809077;24;20159;-86
2023/03/12 04:04:45;;;;;;;1.83;1.50;;;17.70;31.10;;;;;;5855048;24;20185;-86
2023/03/12 04:07:16;;;;;;;1.45;1.35;;;17.60;31.00;;;;;;5893057;24;20156;-86
2023/03/12 04:09:42;;;;;;;1.25;1.15;;;17.70;31.10;;;;;;5911385;24;20195;-86
2023/03/12 04:12:15;;;;;;;1.50;1.40;;;17.70;31.10;;;;;;5919671;24;20165;-86
2023/03/12 04:14:47;;;;;;;1.40;1.25;;;17.70;31.20;;;;;;5907520;24;20699;-86
2023/03/12 04:17:31;;;;;;;1.48;1.38;;;17.70;31.10;;;;;;5902757;24;20243;-86
2023/03/12 04:22:59;;;;;;;1.52;1.35;;;17.60;31.10;;;;;;5867912;24;20218;-86
2023/03/12 04:25:52;;;;;;;1.63;1.50;;;17.60;31.10;;;;;;5851847;24;20166;-86
2023/03/12 04:28:43;;;;;;;2.08;1.20;;;17.70;31.20;;;;;;5878632;24;20158;-86
2023/03/12 04:31:15;;;;;;;1.20;1.10;;;17.60;31.10;;;;;;5881119;24;20165;-86
2023/03/12 04:34:05;;;;;;;1.70;1.40;;;17.60;31.10;;;;;;5884436;24;20223;-86
2023/03/12 04:36:45;;;;;;;1.35;1.20;;;17.60;31.10;;;;;;5884240;24;20178;-86
2023/03/12 04:39:28;;;;;;;1.48;1.38;;;17.60;31.10;;;;;;5911052;24;20188;-86
2023/03/12 04:42:10;;;;;;;1.52;1.30;;;17.60;31.20;;;;;;5945338;24;20159;-86
2023/03/12 04:44:39;;;;;;;1.30;1.20;;;17.60;31.20;;;;;;5993627;24;20155;-86
2023/03/12 04:47:23;;;;;;;2.88;1.38;;;17.60;31.20;;;;;;5993265;24;20496;-86
2023/03/12 04:50:01;;;;;;;1.80;1.40;;;17.60;31.20;;;;;;5995015;24;20192;-86
2023/03/12 04:52:39;;;;;;;1.70;1.30;;;17.60;31.90;;;;;;5994728;24;20297;-86
2023/03/12 04:55:11;;;;;;;1.45;1.20;;;17.60;31.20;;;;;;5972596;24;20183;-86
2023/03/12 04:57:46;;;;;;;1.65;1.25;;;17.60;31.30;;;;;;5945749;24;20190;-86
2023/03/12 05:00:25;;;;;;;1.45;1.33;;;17.60;31.20;;;;;;5955591;24;20213;-86
2023/03/12 05:03:18;;;;;;;1.23;1.13;;;17.60;31.20;;;;;;5914483;24;20532;-86
2023/03/12 05:06:01;;;;;;;1.58;1.40;;;17.60;31.30;;;;;;5937424;24;20562;-86
2023/03/12 05:08:31;;;;;;;1.60;1.45;;;17.60;31.30;;;;;;5853494;24;20166;-86
2023/03/12 05:11:21;;;;;;;1.58;1.48;;;17.60;31.20;;;;;;5855942;24;20163;-86
2023/03/12 05:14:03;;;;;;;1.35;1.25;;;17.60;31.20;;;;;;5883800;24;20168;-87
2023/03/12 05:16:52;;;;;;;1.40;1.30;;;17.60;31.20;;;;;;5885789;24;20530;-86
2023/03/12 05:19:36;;;;;;;1.40;1.30;;;17.60;31.30;;;;;;5989104;24;20191;-86
2023/03/12 05:28:49;;;;;;;1.20;1.10;;;17.50;31.30;;;;;;5884718;24;20158;-86
2023/03/12 05:31:11;;;;;;;1.48;1.23;;;17.60;31.30;;;;;;5800684;24;20156;-85
2023/03/12 05:33:41;;;;;;;1.50;1.40;;;17.60;31.30;;;;;;5804547;24;20226;-85
2023/03/12 05:36:25;;;;;;;1.50;1.38;;;17.50;31.30;;;;;;5827521;24;20225;-85
2023/03/12 05:39:01;;;;;;;1.20;1.10;;;17.60;31.30;;;;;;5805225;24;20164;-85
2023/03/12 05:44:38;;;;;;;1.52;1.42;;;17.60;31.50;;;;;;5840688;24;20507;-86
2023/03/12 05:47:10;;;;;;;1.40;1.30;;;17.60;31.40;;;;;;5808948;24;20159;-86
2023/03/12 05:49:55;;;;;;;1.75;1.48;;;17.60;31.40;;;;;;5809501;24;20159;-86
2023/03/12 05:52:30;;;;;;;1.20;1.10;;;17.60;31.40;;;;;;5803282;24;20230;-86
2023/03/12 05:54:58;;;;;;;1.25;1.15;;;17.60;31.40;;;;;;5805617;24;20194;-86
2023/03/12 05:57:30;;;;;;;1.33;1.23;;;17.60;31.40;;;;;;5827796;24;20172;-86
2023/03/12 06:00:03;;;;;;;1.30;1.20;;;17.60;31.40;;;;;;5848727;24;20195;-87
2023/03/12 06:02:37;;;;;;;1.50;1.40;;;17.60;31.40;;;;;;5872975;24;20169;-86
2023/03/12 06:05:12;;;;;;;1.40;1.30;;;17.60;31.50;;;;;;5885790;24;20225;-86
2023/03/12 06:07:48;;;;;;;;;;;;;;;;;;;;;
2023/03/12 06:10:27;;;;;;;1.38;1.15;;;17.50;31.50;;;;;;5910097;24;20633;-86
2023/03/12 06:13:09;;;;;;;1.55;1.30;;;17.60;31.50;;;;;;5906210;24;20225;-86
2023/03/12 06:16:04;;;;;;;1.40;1.30;;;17.60;31.50;;;;;;5862484;24;20169;-86
2023/03/12 06:18:54;;;;;;;1.30;1.20;;;17.60;31.50;;;;;;5892979;24;20159;-86
2023/03/12 06:21:28;;;;;;;1.90;1.65;;;17.60;31.40;;;;;;5852396;24;20190;-86
2023/03/12 06:23:58;;;;;;;1.33;1.23;;;17.60;31.50;;;;;;5853121;24;20218;-87
2023/03/12 06:26:27;;;;;;;1.45;1.35;;;17.60;31.50;;;;;;5853499;24;20181;-86
2023/03/12 06:28:59;;;;;;;1.33;1.23;;;17.60;31.50;;;;;;5849840;24;20158;-85
2023/03/12 06:31:33;;;;;;;1.38;1.25;;;17.50;31.50;;;;;;5886129;24;20734;-85
2023/03/12 06:34:09;;;;;;;1.42;1.20;;;17.50;31.50;;;;;;5912470;24;20236;-86
2023/03/12 06:37:07;;;;;;;1.60;1.50;;;17.50;31.50;;;;;;5902281;24;20158;-86
2023/03/12 06:39:41;;;;;;;1.20;1.10;;;17.60;31.50;;;;;;5835643;24;20183;-86
2023/03/12 06:42:18;;;;;;;1.30;1.20;;;17.60;31.60;;;;;;5858922;24;20154;-86
2023/03/12 06:44:52;;;;;;;1.50;1.40;;;17.60;31.60;;;;;;5853689;24;20159;-86
2023/03/12 06:47:58;;;;;;;1.50;1.30;;;17.50;31.50;;;;;;5912284;24;20157;-86
2023/03/12 06:50:43;;;;;;;1.35;1.25;;;17.60;31.60;;;;;;5906393;24;20254;-87
2023/03/12 06:53:11;;;;;;;1.30;1.20;;;17.60;31.60;;;;;;5942588;24;20259;-88
2023/03/12 06:55:39;;;;;;;1.85;1.25;;;17.50;31.40;;;;;;5979574;23;20158;-86
2023/03/12 06:58:06;;;;;;;1.35;1.25;;;17.60;31.50;;;;;;6000412;23;20166;-87
2023/03/12 07:00:33;;;;;;;1.40;1.30;;;17.50;31.60;;;;;;5994798;23;20189;-87
2023/03/12 07:02:59;;;;;;;1.20;1.10;;;17.60;31.60;;;;;;6025220;23;20169;-87
2023/03/12 07:05:28;;;;;;;1.48;1.27;;;17.60;31.60;;;;;;6003066;23;20157;-86
2023/03/12 07:07:54;;;;;;;1.40;1.30;;;17.60;31.50;;;;;;5995531;23;20157;-85
2023/03/12 07:10:20;;;;;;;1.58;1.45;;;17.60;31.60;;;;;;6027548;23;20291;-86
2023/03/12 07:12:45;;;;;;;1.30;1.20;;;17.60;32.30;;;;;;6022199;23;20285;-87
2023/03/12 07:15:11;;;;;;;1.48;1.30;;;17.60;31.60;;;;;;6040286;23;20239;-87
2023/03/12 07:17:38;;;;;;;1.30;1.20;;;17.60;31.60;;;;;;6101725;23;20215;-87
2023/03/12 07:20:05;;;;;;;1.30;1.20;;;17.60;31.60;;;;;;6102469;23;20703;-85
2023/03/12 07:22:31;;;;;;;1.27;1.17;;;17.60;31.60;;;;;;6079482;23;20552;-86
2023/03/12 07:24:57;;;;;;;2.13;1.20;;;17.60;31.50;;;;;;6113163;23;20265;-87
2023/03/12 07:27:22;;;;;;;1.58;1.48;;;17.60;31.50;;;;;;6140190;23;20220;-86
2023/03/12 07:29:49;;;;;;;1.20;1.10;;;17.60;31.50;;;;;;6189610;23;20249;-87
2023/03/12 07:32:15;;;;;;;1.90;1.40;;;17.70;31.50;;;;;;6164744;23;20154;-87
2023/03/12 07:34:41;;;;;;;3.42;1.25;;;17.70;31.50;;;;;;6166995;23;20169;-87
2023/03/12 07:37:06;;;;;;;3.17;1.30;;;17.60;31.50;;;;;;6186001;22;20153;-87
2023/03/12 07:39:32;;;;;;;1.50;1.40;;;17.60;31.50;;;;;;6225973;22;20164;-87
2023/03/12 07:42:01;;;;;;;3.10;1.25;;;17.60;31.60;;;;;;6254627;22;20139;-87
2023/03/12 07:44:27;;;;;;;1.40;1.15;;;17.60;31.50;;;;;;6254882;22;20136;-86
2023/03/12 07:46:53;;;;;;;1.70;1.27;;;17.60;31.50;;;;;;6231357;22;20175;-86
2023/03/12 07:49:19;;;;;;;1.77;1.20;;;17.60;31.50;;;;;;6206423;22;20148;-86
2023/03/12 07:51:47;;;;;;;1.80;1.25;;;17.60;31.50;;;;;;6203341;22;20148;-85
2023/03/12 07:54:14;;;;;;;1.30;1.20;;;17.70;31.60;;;;;;6230814;22;20137;-84
2023/03/12 07:57:06;;;;;;;1.33;1.20;;;17.70;31.60;;;;;;6203901;22;20163;-83
2023/03/12 08:00:04;;;;;;;;;;;;;;;;;;;;;
2023/03/12 08:02:31;;;;;;;2.03;1.25;;;17.70;31.60;;;;;;6105408;23;20210;-84
2023/03/12 08:04:57;;;;;;;2.20;1.30;;;17.80;31.80;;;;;;6086072;23;20548;-84
2023/03/12 08:07:26;;;;;;;2.38;1.17;;;17.80;31.90;;;;;;6111615;23;20170;-83
2023/03/12 08:10:10;;;;;;;5.13;1.38;;;17.90;32.40;;;;;;6093765;23;20166;-85
2023/03/12 08:12:36;;;;;;;9.23;1.67;;;17.90;31.80;;;;;;6114515;23;20181;-85
2023/03/12 08:15:04;;;;;;;9.65;1.95;;;17.90;31.80;;;;;;6088541;23;20156;-85
2023/03/12 08:17:34;;;;;;;7.22;1.88;;;17.90;31.90;;;;;;6092217;23;20155;-83
2023/03/12 08:20:00;;;;;;;6.47;1.85;;;17.90;31.90;;;;;;6090178;23;20179;-84
2023/03/12 08:22:52;;;;;;;15.55;2.10;;;17.90;31.90;;;;;;6120586;23;20148;-85
2023/03/12 08:25:23;;;;;;;13.82;2.13;;;18.00;31.80;;;;;;6111622;23;20153;-86
2023/03/12 08:27:54;;;;;;;9.10;1.70;;;17.90;31.80;;;;;;6040982;23;20164;-84
2023/03/12 08:30:23;;;;;;;10.05;1.77;;;18.00;31.90;;;;;;6058988;23;20212;-82
2023/03/12 08:33:24;;;;;;;9.05;1.77;;;18.10;31.90;;;;;;6099623;23;20186;-85
2023/03/12 08:35:51;;;;;;;11.68;1.90;;;18.20;31.80;;;;;;6004031;23;20164;-83
2023/03/12 08:38:44;;;;;;;12.98;2.13;;;18.20;31.80;;;;;;6086462;23;20173;-85
2023/03/12 08:41:14;;;;;;;7.80;1.85;;;18.20;31.80;;;;;;6108136;23;20189;-83
2023/03/12 08:43:41;;;;;;;11.80;1.88;;;18.10;31.60;;;;;;6056984;23;20159;-84
2023/03/12 08:46:07;;;;;;;10.68;1.60;;;18.20;32.00;;;;;;6081655;23;20184;-84
2023/03/12 08:49:23;;;;;;;12.65;1.65;;;18.30;32.00;;;;;;6084419;23;20577;-85
2023/03/12 08:51:50;;;;;;;14.30;2.10;;;18.40;32.50;;;;;;5935792;24;20156;-84
2023/03/12 08:54:18;;;;;;;22.23;2.75;;;18.40;32.10;;;;;;5904017;24;20153;-84
2023/03/12 08:56:51;;;;;;;16.77;2.60;;;18.50;32.10;;;;;;5948386;24;20235;-87
2023/03/12 08:59:19;;;;;;;30.75;2.55;;;18.40;31.80;;;;;;5958874;24;20506;-81
2023/03/12 09:02:13;;;;;;;32.95;3.17;;;18.40;32.10;;;;;;5957849;24;20183;-86
2023/03/12 09:04:50;;;;;;;37.03;3.17;;;18.50;32.50;;;;;;5830357;24;20163;-84
2023/03/12 09:07:46;;;;;;;30.08;3.20;;;18.50;32.20;;;;;;5868765;24;20161;-84
2023/03/12 09:10:15;;;;;;;32.05;3.10;;;18.50;32.40;;;;;;5851273;24;20161;-84
2023/03/12 09:13:12;;;;;;;36.67;3.53;;;18.40;32.80;;;;;;5884603;24;20225;-86
2023/03/12 09:15:51;;;;;;;21.02;2.47;;;18.50;33.00;;;;;;5726252;25;20166;-88
2023/03/12 09:18:57;;;;;;;30.08;2.60;;;18.60;33.00;;;;;;5704599;25;20623;-85
2023/03/12 09:21:23;;;;;;;25.48;3.33;;;18.60;33.00;;;;;;5728788;25;20181;-87
2023/03/12 09:23:49;;;;;;;24.15;2.55;;;18.70;32.90;;;;;;5753611;24;20173;-84
2023/03/12 09:26:15;;;;;;;23.08;3.40;;;18.70;32.80;;;;;;5733835;24;20164;-83
2023/03/12 09:28:43;;;;;;;16.90;2.60;;;18.70;32.60;;;;;;5724614;25;20178;-86
2023/03/12 09:31:13;;;;;;;18.67;2.28;;;18.60;32.50;;;;;;5749450;24;20690;-86
2023/03/12 09:33:50;;;;;;;15.50;2.20;;;18.70;32.40;;;;;;5781421;24;20161;-86
2023/03/12 09:36:17;;;;;;;14.95;2.22;;;18.70;32.50;;;;;;5779843;24;20160;-85
2023/03/12 09:39:38;;;;;;;;;;;;;;;;;;;;;
2023/03/12 09:42:29;;;;;;;12.50;1.95;;;18.70;32.40;;;;;;5823046;24;20187;-85
2023/03/12 09:45:15;;;;;;;15.18;1.80;;;18.70;32.40;;;;;;5852235;24;20159;-84
2023/03/12 09:47:58;;;;;;;15.02;1.90;;;18.70;32.50;;;;;;5853409;24;20192;-85
2023/03/12 09:53:45;;;;;;;17.92;2.03;;;18.70;32.60;;;;;;5894411;24;20640;-84
2023/03/12 09:56:48;;;;;;;20.48;2.70;;;18.80;33.10;;;;;;5934580;24;20168;-85
2023/03/12 09:59:15;;;;;;;15.50;2.35;;;18.80;33.20;;;;;;5976394;23;20209;-82
2023/03/12 10:01:49;;;;;;;16.65;2.35;;;18.70;33.20;;;;;;5967858;23;20196;-82
2023/03/12 10:04:27;;;;;;;13.90;1.58;;;18.60;33.10;;;;;;6016809;23;20150;-83
2023/03/12 10:07:11;;;;;;;19.10;2.00;;;18.70;33.30;;;;;;6016527;23;20135;-82
2023/03/12 10:10:15;;;;;;;24.67;2.10;;;18.70;33.30;;;;;;5993416;23;20149;-83
2023/03/12 10:13:16;;;;;;;13.30;2.03;;;18.70;33.70;;;;;;5976526;24;20243;-83
2023/03/12 10:16:00;;;;;;;18.63;2.13;;;18.60;33.30;;;;;;5988997;24;20222;-83
2023/03/12 10:18:37;;;;;;;18.75;2.20;;;18.70;33.50;;;;;;5992485;24;20162;-84
2023/03/12 10:21:36;;;;;;;10.07;1.63;;;18.60;33.30;;;;;;5989054;24;20183;-83
2023/03/12 10:24:13;;;;;;;10.35;1.45;;;18.60;33.40;;;;;;6081744;23;20162;-84
2023/03/12 10:26:41;;;;;;;7.03;1.55;;;18.60;33.50;;;;;;6078817;23;20156;-84
2023/03/12 10:29:28;;;;;;;5.88;1.27;;;18.60;33.30;;;;;;6082539;23;20212;-83
2023/03/12 10:32:15;;;;;;;10.07;1.75;;;18.70;33.30;;;;;;6226071;23;20142;-83
2023/03/12 10:34:45;;;;;;;11.65;1.77;;;18.70;33.20;;;;;;6224205;23;20125;-83
2023/03/12 10:37:21;;;;;;;5.55;1.20;;;18.70;33.20;;;;;;6196245;23;20137;-85
2023/03/12 10:39:48;;;;;;;10.27;2.10;;;18.70;33.20;;;;;;6195685;23;20244;-85
2023/03/12 10:42:17;;;;;;;8.77;1.73;;;18.70;33.30;;;;;;6170453;23;20215;-83
2023/03/12 10:44:42;;;;;;;16.23;2.40;;;18.70;33.30;;;;;;6195082;23;20133;-84
2023/03/12 10:47:34;;;;;;;10.07;1.85;;;18.70;33.40;;;;;;6198027;23;20219;-83
2023/03/12 10:50:18;;;;;;;9.88;1.90;;;18.70;33.40;;;;;;6176589;23;20141;-84
2023/03/12 10:52:45;;;;;;;6.90;1.20;;;18.70;33.50;;;;;;6234712;22;20214;-83
2023/03/12 10:55:21;;;;;;;9.80;1.77;;;18.80;33.40;;;;;;6280769;22;20133;-83
2023/03/12 10:57:48;;;;;;;16.13;1.92;;;18.80;33.40;;;;;;6235429;22;20143;-82
2023/03/12 11:00:25;;;;;;;17.25;1.77;;;18.70;33.60;;;;;;6234271;22;20173;-82
2023/03/12 11:03:17;;;;;;;12.63;1.65;;;18.80;33.40;;;;;;6233572;22;20144;-82
2023/03/12 11:05:48;;;;;;;18.55;2.17;;;18.70;33.30;;;;;;6258444;22;20158;-82
2023/03/12 11:08:23;;;;;;;22.95;2.15;;;18.80;33.40;;;;;;6256502;22;20129;-82
2023/03/12 11:10:49;;;;;;;19.75;2.15;;;18.70;33.30;;;;;;6234359;22;20156;-84
2023/03/12 11:13:34;;;;;;;17.45;2.20;;;18.90;33.30;;;;;;6231525;22;20232;-83
2023/03/12 11:16:24;;;;;;;11.43;2.28;;;18.80;33.30;;;;;;6230005;22;20145;-83
2023/03/12 11:19:02;;;;;;;12.52;1.65;;;18.80;33.20;;;;;;6233478;22;20141;-84
2023/03/12 11:21:30;;;;;;;13.90;2.22;;;18.80;33.40;;;;;;6207348;22;20144;-83
2023/03/12 11:24:09;;;;;;;16.02;1.65;;;18.80;33.30;;;;;;6259589;22;20208;-82
2023/03/12 11:26:55;;;;;;;9.77;1.90;;;18.80;33.40;;;;;;6236537;22;20602;-83
2023/03/12 11:29:32;;;;;;;11.60;2.15;;;18.80;33.40;;;;;;6215892;22;20141;-83
2023/03/12 11:32:01;;;;;;;18.50;1.90;;;18.80;33.50;;;;;;6237114;22;20129;-83
2023/03/12 11:34:33;;;;;;;11.85;1.63;;;18.80;33.70;;;;;;6237230;22;20178;-82
2023/03/12 11:37:36;;;;;;;14.88;1.77;;;18.70;33.80;;;;;;6260497;22;20140;-82
2023/03/12 11:40:25;;;;;;;12.88;1.50;;;18.80;33.50;;;;;;6239596;22;20255;-82
2023/03/12 11:43:03;;;;;;;13.45;1.63;;;18.80;33.40;;;;;;6238736;22;20133;-82
2023/03/12 11:46:05;;;;;;;17.42;2.08;;;18.80;33.30;;;;;;6235109;22;20176;-82
2023/03/12 11:48:55;;;;;;;11.75;1.52;;;18.90;33.40;;;;;;6242714;22;20140;-84
2023/03/12 11:51:45;;;;;;;9.43;1.23;;;18.90;33.20;;;;;;6239010;22;20171;-82
2023/03/12 11:54:45;;;;;;;9.63;1.55;;;18.90;33.10;;;;;;6262105;22;20188;-84
2023/03/12 11:57:35;;;;;;;9.85;1.60;;;18.90;33.10;;;;;;6261774;22;20518;-83
2023/03/12 12:00:16;;;;;;;10.35;1.15;;;18.90;33.20;;;;;;6240258;22;20612;-84
2023/03/12 12:02:59;;;;;;;9.30;1.20;;;18.90;32.90;;;;;;6237524;22;20136;-83
2023/03/12 12:05:46;;;;;;;11.40;1.67;;;18.90;32.80;;;;;;6239555;22;20141;-83
2023/03/12 12:08:32;;;;;;;14.35;1.80;;;18.90;33.00;;;;;;6244865;22;20137;-83
2023/03/12 12:11:27;;;;;;;7.55;1.38;;;18.90;32.80;;;;;;6261868;22;20133;-83
2023/03/12 12:14:11;;;;;;;8.50;0.98;;;18.90;32.80;;;;;;6217353;22;20145;-83
2023/03/12 12:16:45;;;;;;;7.82;0.95;;;18.90;32.70;;;;;;6235950;22;20140;-83
2023/03/12 12:19:35;;;;;;;7.28;1.15;;;18.90;32.80;;;;;;6234511;22;20149;-83
2023/03/12 12:22:22;;;;;;;10.55;1.33;;;18.90;32.90;;;;;;6238445;22;20176;-83
2023/03/12 12:25:22;;;;;;;6.50;1.00;;;18.80;32.70;;;;;;6262891;22;20129;-84
2023/03/12 12:27:57;;;;;;;4.97;0.98;;;18.90;32.40;;;;;;6262070;22;20144;-83
2023/03/12 12:30:38;;;;;;;6.90;0.80;;;18.90;32.50;;;;;;6238383;22;20139;-87
2023/03/12 12:33:35;;;;;;;8.57;1.05;;;18.90;32.40;;;;;;6213404;22;20141;-85
2023/03/12 12:36:02;;;;;;;4.85;0.95;;;18.90;32.30;;;;;;6239446;22;20155;-84
2023/03/12 12:38:34;;;;;;;8.85;1.20;;;18.90;32.20;;;;;;6262432;22;20133;-85
2023/03/12 12:41:21;;;;;;;6.20;1.10;;;18.90;32.40;;;;;;6238054;22;20161;-81
2023/03/12 12:43:48;;;;;;;6.28;1.10;;;18.80;32.40;;;;;;6266857;22;20520;-85
2023/03/12 12:46:24;;;;;;;5.72;0.88;;;18.70;32.30;;;;;;6263041;22;20167;-83
2023/03/12 12:48:55;;;;;;;4.43;0.90;;;18.80;32.40;;;;;;6237919;22;20140;-84
2023/03/12 12:51:24;;;;;;;5.05;0.82;;;18.70;32.20;;;;;;6239148;22;20133;-82
2023/03/12 12:54:15;;;;;;;4.25;0.80;;;18.80;32.30;;;;;;6208692;23;20197;-83
2023/03/12 12:57:07;;;;;;;6.30;1.10;;;18.80;32.10;;;;;;6238021;23;20232;-83
2023/03/12 12:59:51;;;;;;;6.30;1.10;;;18.80;32.30;;;;;;6258882;23;20181;-83
2023/03/12 13:02:25;;;;;;;6.47;0.95;;;18.80;32.00;;;;;;6259672;23;20142;-84
2023/03/12 13:04:55;;;;;;;2.88;0.90;;;18.80;32.10;;;;;;6234230;23;20137;-84
2023/03/12 13:07:30;;;;;;;10.13;1.27;;;18.70;31.80;;;;;;6233334;23;20148;-83
2023/03/12 13:09:57;;;;;;;3.83;0.70;;;18.90;31.90;;;;;;6257414;23;20146;-85
2023/03/12 13:12:29;;;;;;;3.88;1.00;;;18.90;31.70;;;;;;6233770;23;20255;-84
2023/03/12 13:14:58;;;;;;;3.30;1.02;;;18.90;31.70;;;;;;6233447;23;20173;-84
2023/03/12 13:17:29;;;;;;;2.58;0.90;;;18.80;31.80;;;;;;6231783;23;20152;-85
2023/03/12 13:20:13;;;;;;;3.92;0.80;;;18.80;31.90;;;;;;6233328;23;20173;-84
2023/03/12 13:22:49;;;;;;;2.47;0.73;;;18.70;31.80;;;;;;6230093;23;20148;-84
2023/03/12 13:25:40;;;;;;;2.80;0.70;;;18.70;31.80;;;;;;6257108;23;20130;-83
2023/03/12 13:28:34;;;;;;;4.28;1.00;;;18.90;31.60;;;;;;6232363;23;20138;-85
2023/03/12 13:31:35;;;;;;;1.63;0.70;;;18.70;31.70;;;;;;6251285;23;20133;-86
2023/03/12 13:34:40;;;;;;;2.55;0.80;;;18.80;31.70;;;;;;6230480;23;20148;-86
2023/03/12 13:37:25;;;;;;;4.90;0.90;;;18.80;31.50;;;;;;6251235;23;20157;-84
2023/03/12 13:39:50;;;;;;;3.08;0.98;;;18.80;31.40;;;;;;6227172;23;20283;-84
2023/03/12 13:42:34;;;;;;;1.55;0.65;;;18.90;31.20;;;;;;6223795;23;20133;-86
2023/03/12 13:45:20;;;;;;;6.15;0.80;;;18.80;31.30;;;;;;6250326;23;20165;-84
2023/03/12 13:47:46;;;;;;;6.07;1.05;;;18.80;31.40;;;;;;6245970;23;20584;-85
2023/03/12 13:50:13;;;;;;;2.22;0.60;;;18.70;31.30;;;;;;6245829;23;20134;-85
2023/03/12 13:52:41;;;;;;;2.28;0.57;;;18.70;31.10;;;;;;6221080;23;20223;-86
2023/03/12 13:55:33;;;;;;;2.67;0.60;;;18.70;31.10;;;;;;6225624;23;20157;-86
2023/03/12 13:58:09;;;;;;;3.58;0.80;;;18.80;31.00;;;;;;6225233;23;20154;-88
2023/03/12 14:00:37;;;;;;;1.48;0.57;;;18.80;31.10;;;;;;6248823;23;20165;-87
2023/03/12 14:03:25;;;;;;;3.15;0.65;;;18.70;31.10;;;;;;6223869;23;20148;-87
2023/03/12 14:06:06;;;;;;;2.95;0.70;;;18.80;31.10;;;;;;6223552;23;20157;-85
2023/03/12 14:08:45;;;;;;;1.10;0.60;;;18.80;31.00;;;;;;6223250;23;20145;-84
2023/03/12 14:11:45;;;;;;;4.03;0.40;;;18.80;31.00;;;;;;6248388;23;20149;-85
2023/03/12 14:14:40;;;;;;;2.17;0.60;;;18.70;31.20;;;;;;6226074;23;20153;-85
2023/03/12 14:17:14;;;;;;;0.50;0.50;;;18.70;31.20;;;;;;6248886;23;20439;-85
2023/03/12 14:19:41;;;;;;;3.75;0.70;;;18.70;31.90;;;;;;6223717;23;20178;-85
2023/03/12 14:22:10;;;;;;;1.90;0.63;;;18.70;31.10;;;;;;6254704;23;20129;-83